Time;durP1;ratioP1;P1;durP2;ratioP2;P2;SDS_P1;SDS_P2;PMS_P1;PMS_P2;Temp;Humidity;BMP_temperature;BMP_pressure;BME280_temperature;BME280_humidity;BME280_pressure;Samples;Min_cycle;Max_cycle;Signal;HPM_P1;HPM_P2
2023/11/26 00:00:44;;;;;;;7.90;2.47;;;5.20;99.90;;;;;;5011571;28;20096;-76
2023/11/26 00:03:11;;;;;;;6.30;2.60;;;5.20;99.90;;;;;;5003552;28;20057;-77
2023/11/26 00:05:38;;;;;;;10.52;2.90;;;5.20;99.90;;;;;;4998838;28;20064;-77
2023/11/26 00:08:05;;;;;;;3.58;2.10;;;5.20;99.90;;;;;;5003311;28;20487;-77
2023/11/26 00:10:32;;;;;;;5.28;1.83;;;5.20;99.90;;;;;;5000266;28;20045;-77
2023/11/26 00:12:59;;;;;;;6.85;1.98;;;5.30;99.90;;;;;;5009960;28;20080;-79
2023/11/26 00:15:25;;;;;;;5.93;1.88;;;5.20;99.90;;;;;;5012824;28;20053;-79
2023/11/26 00:17:52;;;;;;;7.55;2.17;;;5.20;99.90;;;;;;5016147;28;20054;-79
2023/11/26 00:20:19;;;;;;;5.75;2.13;;;5.30;99.90;;;;;;5013381;28;20558;-79
2023/11/26 00:22:47;;;;;;;5.72;2.10;;;5.30;99.90;;;;;;5014351;28;20054;-79
2023/11/26 00:25:14;;;;;;;8.95;2.00;;;5.30;99.90;;;;;;5031897;28;20120;-79
2023/11/26 00:27:40;;;;;;;6.18;1.92;;;5.30;99.90;;;;;;5029689;28;20060;-79
2023/11/26 00:30:07;;;;;;;6.28;2.45;;;5.30;99.90;;;;;;5018312;28;20531;-80
2023/11/26 00:32:34;;;;;;;5.07;1.90;;;5.30;99.90;;;;;;5014393;28;20073;-78
2023/11/26 00:35:02;;;;;;;6.65;2.22;;;5.30;99.90;;;;;;5017530;28;20073;-79
2023/11/26 00:37:29;;;;;;;4.70;1.80;;;5.40;99.90;;;;;;5010913;28;20057;-79
2023/11/26 00:39:55;;;;;;;4.35;2.08;;;5.40;99.90;;;;;;5014491;28;20073;-79
2023/11/26 00:42:22;;;;;;;7.72;2.38;;;5.40;99.90;;;;;;5012803;28;20457;-79
2023/11/26 00:44:49;;;;;;;6.20;1.90;;;5.40;99.90;;;;;;5014284;28;20046;-79
2023/11/26 00:47:16;;;;;;;5.80;1.75;;;5.40;99.90;;;;;;5013937;28;20046;-80
2023/11/26 00:49:42;;;;;;;4.82;2.00;;;5.40;99.90;;;;;;5014363;28;20085;-78
2023/11/26 00:52:09;;;;;;;6.40;2.17;;;5.40;99.90;;;;;;5015658;28;20053;-80
2023/11/26 00:54:36;;;;;;;6.82;1.85;;;5.40;99.90;;;;;;5015618;28;20101;-80
2023/11/26 00:57:02;;;;;;;6.30;2.03;;;5.40;99.90;;;;;;5005736;28;20043;-77
2023/11/26 00:59:29;;;;;;;5.93;2.00;;;5.50;99.90;;;;;;4998484;28;20039;-78
2023/11/26 01:01:56;;;;;;;6.20;2.05;;;5.40;99.90;;;;;;5000558;28;20045;-78
2023/11/26 01:04:24;;;;;;;4.70;1.80;;;5.40;99.90;;;;;;5003425;28;20494;-76
2023/11/26 01:06:51;;;;;;;6.18;2.38;;;5.40;99.90;;;;;;5003135;28;20457;-78
2023/11/26 01:09:17;;;;;;;4.28;2.30;;;5.40;99.90;;;;;;5003542;28;20054;-78
2023/11/26 01:11:44;;;;;;;6.18;2.20;;;5.40;99.90;;;;;;5002733;28;20526;-78
2023/11/26 01:14:11;;;;;;;6.68;2.00;;;5.40;99.90;;;;;;5003864;28;20105;-77
2023/11/26 01:16:38;;;;;;;9.52;2.53;;;5.50;99.90;;;;;;5005261;28;20056;-77
2023/11/26 01:19:05;;;;;;;7.60;2.10;;;5.40;99.90;;;;;;5004266;28;20050;-77
2023/11/26 01:21:32;;;;;;;9.25;2.53;;;5.40;99.90;;;;;;5001405;28;20121;-77
2023/11/26 01:23:58;;;;;;;6.13;2.00;;;5.40;99.90;;;;;;5001382;28;20046;-77
2023/11/26 01:26:25;;;;;;;10.40;2.30;;;5.40;99.90;;;;;;5004135;28;20038;-77
2023/11/26 01:28:52;;;;;;;3.90;1.85;;;5.40;99.90;;;;;;5003950;28;20058;-77
2023/11/26 01:31:19;;;;;;;8.50;1.85;;;5.40;99.90;;;;;;5006648;28;20045;-77
2023/11/26 01:33:46;;;;;;;3.95;1.65;;;5.40;99.90;;;;;;5004879;28;20050;-77
2023/11/26 01:36:12;;;;;;;6.38;1.80;;;5.30;99.90;;;;;;5007792;28;20092;-76
2023/11/26 01:38:39;;;;;;;8.98;2.13;;;5.30;99.90;;;;;;5004862;28;20088;-77
2023/11/26 01:41:07;;;;;;;5.43;1.70;;;5.30;99.90;;;;;;5004978;28;20504;-77
2023/11/26 01:43:34;;;;;;;3.50;1.90;;;5.30;99.90;;;;;;5006295;28;20046;-77
2023/11/26 01:46:07;;;;;;;5.72;2.30;;;5.30;99.90;;;;;;5003541;28;20047;-77
2023/11/26 01:48:35;;;;;;;6.90;2.05;;;5.30;99.90;;;;;;5008285;28;20042;-78
2023/11/26 01:51:05;;;;;;;3.28;1.45;;;5.30;99.90;;;;;;4969240;28;1053652;-77
2023/11/26 01:53:33;;;;;;;10.50;2.10;;;5.30;99.90;;;;;;5006661;28;20042;-77
2023/11/26 01:56:01;;;;;;;6.00;2.17;;;5.30;99.90;;;;;;5005635;28;20100;-77
2023/11/26 01:58:29;;;;;;;7.55;2.42;;;5.30;99.90;;;;;;5008110;28;20520;-77
2023/11/26 02:00:57;;;;;;;8.25;2.20;;;5.30;99.90;;;;;;5005358;28;20399;-77
2023/11/26 02:03:24;;;;;;;11.52;2.30;;;5.40;99.90;;;;;;5008260;28;20152;-77
2023/11/26 02:05:51;;;;;;;7.47;1.92;;;5.30;99.90;;;;;;5004493;28;20105;-77
2023/11/26 02:08:20;;;;;;;10.20;2.60;;;5.40;99.90;;;;;;5003751;28;20498;-78
2023/11/26 02:10:48;;;;;;;6.40;2.15;;;5.30;99.90;;;;;;5004268;28;20053;-76
2023/11/26 02:13:15;;;;;;;10.38;2.05;;;5.40;99.90;;;;;;5016536;28;20047;-77
2023/11/26 02:15:42;;;;;;;11.27;2.67;;;5.40;99.90;;;;;;5006021;28;20066;-77
2023/11/26 02:18:09;;;;;;;8.23;2.45;;;5.30;99.90;;;;;;5004966;28;20050;-77
2023/11/26 02:20:36;;;;;;;6.57;2.30;;;5.30;99.90;;;;;;5006962;28;20053;-77
2023/11/26 02:23:03;;;;;;;5.35;2.03;;;5.30;99.90;;;;;;5004132;28;20074;-77
2023/11/26 02:25:31;;;;;;;6.45;2.17;;;5.40;99.90;;;;;;5006972;28;20120;-77
2023/11/26 02:27:59;;;;;;;8.80;2.47;;;5.40;99.90;;;;;;5005040;28;20046;-78
2023/11/26 02:30:26;;;;;;;5.15;2.10;;;5.40;99.90;;;;;;5003123;28;20049;-78
2023/11/26 02:32:53;;;;;;;13.52;3.53;;;5.40;99.90;;;;;;5005023;28;20054;-77
2023/11/26 02:35:20;;;;;;;6.93;2.47;;;5.40;99.90;;;;;;5022556;28;20052;-77
2023/11/26 02:37:47;;;;;;;5.53;2.33;;;5.40;99.90;;;;;;5003169;28;20058;-77
2023/11/26 02:40:19;;;;;;;5.15;1.90;;;5.40;99.90;;;;;;5007862;28;20042;-78
2023/11/26 02:42:46;;;;;;;7.88;2.03;;;5.40;99.90;;;;;;5005653;28;20046;-78
2023/11/26 02:45:13;;;;;;;8.55;2.53;;;5.40;99.90;;;;;;5020585;28;20046;-77
2023/11/26 02:47:39;;;;;;;4.70;2.55;;;5.40;99.90;;;;;;5007864;28;20084;-78
2023/11/26 02:50:08;;;;;;;6.13;2.08;;;5.40;99.90;;;;;;5006906;28;20498;-77
2023/11/26 02:52:35;;;;;;;9.70;2.00;;;5.40;99.90;;;;;;5009973;28;20133;-78
2023/11/26 02:55:02;;;;;;;8.88;2.33;;;5.40;99.90;;;;;;5006309;28;20050;-78
2023/11/26 02:57:29;;;;;;;7.20;2.10;;;5.40;99.90;;;;;;5005135;28;20066;-77
2023/11/26 02:59:58;;;;;;;6.07;2.22;;;5.50;99.90;;;;;;5006342;28;20070;-77
2023/11/26 03:02:24;;;;;;;5.65;2.22;;;5.50;99.90;;;;;;5010166;28;20050;-77
2023/11/26 03:04:53;;;;;;;4.57;1.88;;;5.40;99.90;;;;;;5006544;28;20523;-77
2023/11/26 03:07:27;;;;;;;7.57;2.13;;;5.50;99.90;;;;;;5009373;28;20092;-78
2023/11/26 03:15:25;;;;;;;7.78;2.05;;;5.40;99.90;;;;;;5007423;28;20045;-77
2023/11/26 03:17:51;;;;;;;8.38;2.63;;;5.40;99.90;;;;;;5002867;28;20509;-78
2023/11/26 03:20:19;;;;;;;6.07;1.92;;;5.40;99.90;;;;;;5007576;28;20515;-77
2023/11/26 03:22:46;;;;;;;8.63;1.90;;;5.40;99.90;;;;;;5003132;28;20056;-78
2023/11/26 03:25:13;;;;;;;3.17;1.63;;;5.40;99.90;;;;;;5008400;28;20474;-77
2023/11/26 03:27:40;;;;;;;6.70;2.00;;;5.40;99.90;;;;;;5005973;28;20086;-78
2023/11/26 03:30:08;;;;;;;5.53;2.88;;;5.40;99.90;;;;;;5005207;28;20054;-77
2023/11/26 03:32:35;;;;;;;6.10;2.22;;;5.40;99.90;;;;;;5004227;28;20052;-77
2023/11/26 03:35:03;;;;;;;7.90;2.42;;;5.40;99.90;;;;;;5005256;28;20372;-77
2023/11/26 03:37:30;;;;;;;6.55;2.17;;;5.40;99.90;;;;;;5005197;28;20100;-77
2023/11/26 03:39:57;;;;;;;9.25;2.15;;;5.40;99.90;;;;;;5004803;28;20050;-77
2023/11/26 03:42:24;;;;;;;7.30;2.47;;;5.40;99.90;;;;;;5021279;28;20065;-77
2023/11/26 03:44:56;;;;;;;7.13;2.13;;;5.40;99.90;;;;;;4997575;28;20051;-77
2023/11/26 03:47:23;;;;;;;8.18;1.77;;;5.40;99.90;;;;;;5022155;28;20105;-78
2023/11/26 03:49:50;;;;;;;7.63;2.38;;;5.30;99.90;;;;;;5002865;28;20053;-77
2023/11/26 03:52:18;;;;;;;5.30;2.03;;;5.40;99.90;;;;;;5006248;28;20133;-77
2023/11/26 03:54:47;;;;;;;5.70;2.08;;;5.40;99.90;;;;;;5003819;28;20049;-77
2023/11/26 03:57:13;;;;;;;5.45;2.20;;;5.30;99.90;;;;;;5003066;28;20053;-77
2023/11/26 03:59:43;;;;;;;6.97;2.13;;;5.30;99.90;;;;;;5004244;28;20054;-77
2023/11/26 04:02:10;;;;;;;5.10;2.38;;;5.40;99.90;;;;;;5004934;28;20065;-77
2023/11/26 04:04:37;;;;;;;7.20;1.85;;;5.40;99.90;;;;;;5003719;28;20498;-77
2023/11/26 04:07:04;;;;;;;7.65;2.00;;;5.30;99.90;;;;;;5004347;28;20051;-77
2023/11/26 04:09:31;;;;;;;9.43;2.15;;;5.40;99.90;;;;;;5004181;28;20052;-77
2023/11/26 04:11:58;;;;;;;6.13;2.03;;;5.40;99.90;;;;;;4998198;28;20054;-77
2023/11/26 04:14:31;;;;;;;5.43;1.88;;;5.40;99.90;;;;;;5005437;28;20049;-77
2023/11/26 04:16:58;;;;;;;7.22;2.10;;;5.40;99.90;;;;;;5000481;28;20050;-77
2023/11/26 04:19:25;;;;;;;6.82;1.95;;;5.40;99.90;;;;;;5006034;28;20457;-77
2023/11/26 04:21:52;;;;;;;3.40;1.98;;;5.40;99.90;;;;;;5003256;28;20078;-77
2023/11/26 04:24:19;;;;;;;7.97;2.63;;;5.40;99.90;;;;;;5004633;28;20042;-77
2023/11/26 04:26:46;;;;;;;3.60;1.80;;;5.40;99.90;;;;;;5003303;28;20111;-77
2023/11/26 04:29:13;;;;;;;13.57;3.13;;;5.40;99.90;;;;;;5004260;28;20096;-78
2023/11/26 04:31:42;;;;;;;6.18;1.67;;;5.40;99.90;;;;;;5004497;28;20045;-77
2023/11/26 04:34:09;;;;;;;5.05;2.08;;;5.40;99.90;;;;;;5004897;28;20089;-77
2023/11/26 04:36:36;;;;;;;6.90;1.95;;;5.40;99.90;;;;;;5003607;28;20129;-77
2023/11/26 04:39:05;;;;;;;5.15;1.92;;;5.40;99.90;;;;;;5001850;28;20049;-77
2023/11/26 04:41:32;;;;;;;6.78;1.63;;;5.40;99.90;;;;;;5004103;28;20042;-77
2023/11/26 04:43:59;;;;;;;6.25;2.00;;;5.30;99.90;;;;;;5002490;28;20463;-78
2023/11/26 04:46:25;;;;;;;6.18;1.95;;;5.30;99.90;;;;;;5005221;28;20043;-77
2023/11/26 04:48:52;;;;;;;6.25;2.25;;;5.40;99.90;;;;;;4999125;28;20047;-77
2023/11/26 04:51:19;;;;;;;8.35;2.28;;;5.40;99.90;;;;;;5003964;28;20046;-78
2023/11/26 04:53:46;;;;;;;8.30;2.13;;;5.40;99.90;;;;;;5003408;28;20053;-78
2023/11/26 04:56:13;;;;;;;8.13;2.60;;;5.40;99.90;;;;;;5003309;28;20048;-77
2023/11/26 04:58:40;;;;;;;6.25;2.00;;;5.40;99.90;;;;;;5003783;28;20120;-77
2023/11/26 05:01:08;;;;;;;10.60;2.60;;;5.40;99.90;;;;;;5006876;28;20490;-77
2023/11/26 05:03:35;;;;;;;5.60;2.10;;;5.40;99.90;;;;;;5010477;28;20478;-77
2023/11/26 05:06:02;;;;;;;10.45;2.25;;;5.40;99.90;;;;;;5005493;28;20468;-77
2023/11/26 05:08:28;;;;;;;6.53;2.33;;;5.40;99.90;;;;;;5009372;28;20042;-77
2023/11/26 05:10:55;;;;;;;3.28;2.00;;;5.40;99.90;;;;;;5004615;28;20562;-76
2023/11/26 05:13:25;;;;;;;8.25;2.40;;;5.40;99.90;;;;;;5007098;28;20100;-77
2023/11/26 05:15:52;;;;;;;5.03;2.00;;;5.40;99.90;;;;;;5009428;28;20495;-78
2023/11/26 05:18:20;;;;;;;9.80;3.20;;;5.40;99.90;;;;;;5010078;28;20051;-78
2023/11/26 05:20:49;;;;;;;7.75;2.17;;;5.40;99.90;;;;;;5009030;28;20047;-77
2023/11/26 05:23:17;;;;;;;8.38;2.47;;;5.40;99.90;;;;;;5009354;28;20050;-77
2023/11/26 05:25:45;;;;;;;8.85;2.38;;;5.40;99.90;;;;;;5009281;28;20109;-77
2023/11/26 05:28:12;;;;;;;5.97;2.15;;;5.40;99.90;;;;;;5022839;28;20058;-78
2023/11/26 05:30:40;;;;;;;5.97;2.13;;;5.40;99.90;;;;;;5008474;28;20221;-77
2023/11/26 05:33:07;;;;;;;12.48;2.67;;;5.40;99.90;;;;;;5007425;28;20082;-77
2023/11/26 05:35:34;;;;;;;5.53;2.30;;;5.30;99.90;;;;;;5006878;28;20050;-78
2023/11/26 05:38:01;;;;;;;5.18;2.22;;;5.30;99.90;;;;;;5004726;28;20514;-77
2023/11/26 05:40:28;;;;;;;5.05;2.15;;;5.40;99.90;;;;;;5008829;28;20520;-78
2023/11/26 05:42:55;;;;;;;7.53;2.53;;;5.40;99.90;;;;;;5009373;28;20050;-77
2023/11/26 05:45:22;;;;;;;7.97;2.92;;;5.40;99.90;;;;;;5005343;28;20042;-78
2023/11/26 05:47:49;;;;;;;8.10;2.67;;;5.40;99.90;;;;;;5007728;28;20053;-77
2023/11/26 05:50:16;;;;;;;8.60;2.30;;;5.40;99.90;;;;;;5006305;28;21149;-77
2023/11/26 05:52:43;;;;;;;10.80;2.38;;;5.40;99.90;;;;;;5006618;28;20053;-76
2023/11/26 05:55:10;;;;;;;5.95;2.08;;;5.30;99.90;;;;;;5002973;28;20088;-77
2023/11/26 05:57:37;;;;;;;9.07;2.90;;;5.30;99.90;;;;;;5007235;28;20049;-77
2023/11/26 06:00:06;;;;;;;8.48;2.30;;;5.30;99.90;;;;;;5005283;28;20046;-77
2023/11/26 06:02:33;;;;;;;7.73;2.60;;;5.30;99.90;;;;;;5001553;28;20046;-77
2023/11/26 06:05:00;;;;;;;5.63;2.65;;;5.30;99.90;;;;;;5005391;28;20046;-78
2023/11/26 06:07:27;;;;;;;5.97;2.42;;;5.30;99.90;;;;;;5005679;28;20042;-77
2023/11/26 06:09:53;;;;;;;5.90;2.38;;;5.30;99.90;;;;;;5007059;28;20473;-78
2023/11/26 06:12:20;;;;;;;6.80;2.28;;;5.20;99.90;;;;;;5004630;28;20065;-77
2023/11/26 06:14:47;;;;;;;8.75;2.33;;;5.20;99.90;;;;;;5006237;28;20107;-76
2023/11/26 06:17:13;;;;;;;5.82;2.60;;;5.30;99.90;;;;;;5004307;28;20102;-77
2023/11/26 06:19:41;;;;;;;7.30;2.15;;;5.20;99.90;;;;;;5022604;28;20054;-77
2023/11/26 06:22:07;;;;;;;7.15;2.65;;;5.30;99.90;;;;;;5005461;28;20050;-77
2023/11/26 06:24:34;;;;;;;7.68;2.60;;;5.30;99.90;;;;;;5008790;28;20069;-78
2023/11/26 06:27:01;;;;;;;5.32;2.00;;;5.20;99.90;;;;;;5003530;28;20073;-77
2023/11/26 06:29:28;;;;;;;5.50;2.30;;;5.20;99.90;;;;;;5008014;28;20042;-78
2023/11/26 06:31:54;;;;;;;5.00;2.00;;;5.20;99.90;;;;;;5007483;28;20050;-77
2023/11/26 06:34:26;;;;;;;4.57;2.15;;;5.20;99.90;;;;;;5004878;28;20074;-76
2023/11/26 06:36:55;;;;;;;6.68;2.28;;;5.20;99.90;;;;;;5001509;28;20056;-77
2023/11/26 06:39:24;;;;;;;5.68;2.20;;;5.20;99.90;;;;;;5004089;28;20120;-77
2023/11/26 06:41:51;;;;;;;6.97;2.28;;;5.30;99.90;;;;;;5001863;28;20042;-78
2023/11/26 06:44:18;;;;;;;3.25;2.00;;;5.30;99.90;;;;;;5004922;28;20073;-77
2023/11/26 06:46:45;;;;;;;5.68;2.00;;;5.30;99.90;;;;;;5022528;28;20104;-77
2023/11/26 06:49:12;;;;;;;6.57;2.53;;;5.30;99.90;;;;;;5004045;28;20052;-77
2023/11/26 06:51:39;;;;;;;9.50;2.28;;;5.30;99.90;;;;;;5007110;28;20050;-77
2023/11/26 06:54:07;;;;;;;8.07;2.67;;;5.20;99.90;;;;;;5004135;28;20100;-77
2023/11/26 06:56:33;;;;;;;5.40;2.38;;;5.20;99.90;;;;;;5007483;28;20108;-77
2023/11/26 06:59:00;;;;;;;5.28;1.88;;;5.20;99.90;;;;;;5002278;28;20084;-77
2023/11/26 07:01:27;;;;;;;6.55;2.90;;;5.20;99.90;;;;;;5004634;28;20046;-78
2023/11/26 07:03:54;;;;;;;7.30;2.50;;;5.20;99.90;;;;;;5003069;28;20104;-78
2023/11/26 07:06:21;;;;;;;5.45;2.17;;;5.20;99.90;;;;;;5005903;28;20050;-77
2023/11/26 07:08:47;;;;;;;4.68;2.72;;;5.20;99.90;;;;;;5005221;28;20121;-78
2023/11/26 07:11:19;;;;;;;9.60;2.42;;;5.20;99.90;;;;;;5003688;28;20117;-77
2023/11/26 07:13:47;;;;;;;6.30;2.42;;;5.20;99.90;;;;;;5007120;28;20089;-77
2023/11/26 07:16:16;;;;;;;5.57;2.53;;;5.20;99.90;;;;;;5003835;28;20058;-77
2023/11/26 07:18:44;;;;;;;5.35;2.13;;;5.20;99.90;;;;;;5007781;28;20086;-77
2023/11/26 07:21:11;;;;;;;5.35;2.20;;;5.20;99.90;;;;;;5004200;28;20124;-77
2023/11/26 07:23:41;;;;;;;4.60;2.17;;;5.20;99.90;;;;;;5006314;28;20041;-77
2023/11/26 07:26:11;;;;;;;5.22;2.58;;;5.20;99.90;;;;;;5000955;28;20042;-77
2023/11/26 07:28:39;;;;;;;9.25;2.72;;;5.10;99.90;;;;;;5024593;28;20095;-78
2023/11/26 07:31:20;;;;;;;6.03;2.63;;;5.10;99.90;;;;;;5006666;28;20061;-78
2023/11/26 07:33:47;;;;;;;6.07;2.50;;;5.10;99.90;;;;;;5005898;28;20540;-78
2023/11/26 07:36:17;;;;;;;6.60;2.60;;;5.20;99.90;;;;;;5005658;28;20054;-78
2023/11/26 07:38:44;;;;;;;9.43;4.88;;;5.20;99.90;;;;;;5006635;28;20116;-78
2023/11/26 07:41:10;;;;;;;9.32;3.53;;;5.20;99.90;;;;;;5003815;28;20046;-78
2023/11/26 07:43:41;;;;;;;9.43;3.38;;;5.20;99.90;;;;;;5004779;28;20042;-77
2023/11/26 07:46:09;;;;;;;6.53;3.10;;;5.20;99.90;;;;;;5003701;28;20100;-78
2023/11/26 07:48:38;;;;;;;6.35;3.28;;;5.20;99.90;;;;;;5020139;28;20069;-78
2023/11/26 07:51:05;;;;;;;6.90;3.00;;;5.20;99.90;;;;;;5005183;28;20055;-78
2023/11/26 07:53:32;;;;;;;9.30;2.83;;;5.20;99.90;;;;;;5005191;28;20472;-76
2023/11/26 07:56:00;;;;;;;13.35;3.08;;;5.30;99.90;;;;;;5007163;28;20046;-77
2023/11/26 07:58:28;;;;;;;5.47;2.88;;;5.30;99.90;;;;;;5006821;28;20046;-78
2023/11/26 08:00:58;;;;;;;10.23;2.88;;;5.30;99.90;;;;;;5007631;28;20477;-77
2023/11/26 08:03:26;;;;;;;7.03;3.13;;;5.30;99.90;;;;;;5003544;28;20046;-77
2023/11/26 08:05:54;;;;;;;8.02;3.35;;;5.30;99.90;;;;;;5005372;28;20077;-77
2023/11/26 08:08:22;;;;;;;8.88;3.50;;;5.30;99.90;;;;;;5003590;28;20046;-77
2023/11/26 08:10:50;;;;;;;9.23;2.67;;;5.30;99.90;;;;;;5006026;28;20425;-78
2023/11/26 08:13:27;;;;;;;7.05;2.70;;;5.30;99.90;;;;;;5003820;28;20058;-78
2023/11/26 08:15:56;;;;;;;6.22;2.47;;;5.20;99.90;;;;;;5004070;28;20081;-78
2023/11/26 08:18:24;;;;;;;6.20;2.42;;;5.20;99.90;;;;;;5003763;28;20100;-78
2023/11/26 08:20:53;;;;;;;6.40;3.95;;;5.20;99.90;;;;;;5004446;28;20196;-77
2023/11/26 08:23:20;;;;;;;9.85;3.80;;;5.30;99.90;;;;;;5003790;28;20133;-78
2023/11/26 08:25:47;;;;;;;8.15;3.53;;;5.30;99.90;;;;;;5003540;28;20046;-78
2023/11/26 08:28:27;;;;;;;5.32;2.10;;;5.30;99.90;;;;;;5003014;28;20505;-78
2023/11/26 08:30:55;;;;;;;4.05;2.58;;;5.30;99.90;;;;;;5004157;28;20054;-77
2023/11/26 08:33:22;;;;;;;5.55;2.33;;;5.40;99.90;;;;;;5003320;28;20112;-78
2023/11/26 08:35:59;;;;;;;3.95;2.00;;;5.40;99.90;;;;;;5004722;28;20105;-78
2023/11/26 08:38:28;;;;;;;6.05;2.60;;;5.40;99.90;;;;;;5001402;28;20054;-78
2023/11/26 08:40:54;;;;;;;6.82;2.40;;;5.40;99.90;;;;;;5005879;28;20077;-78
2023/11/26 08:43:22;;;;;;;3.95;2.35;;;5.40;99.90;;;;;;5003020;28;20418;-78
2023/11/26 08:45:51;;;;;;;4.68;2.03;;;5.40;99.90;;;;;;5023544;28;20049;-77
2023/11/26 08:48:18;;;;;;;7.43;2.65;;;5.50;99.90;;;;;;5005201;28;20494;-77
2023/11/26 08:50:46;;;;;;;6.85;2.00;;;5.50;99.90;;;;;;5006285;28;20128;-76
2023/11/26 08:53:14;;;;;;;3.90;2.00;;;5.50;99.90;;;;;;5002671;28;20049;-78
2023/11/26 08:55:40;;;;;;;3.40;2.40;;;5.50;99.90;;;;;;5005358;28;20345;-78
2023/11/26 08:58:07;;;;;;;5.53;2.63;;;5.60;99.90;;;;;;5002714;28;20049;-78
2023/11/26 09:00:34;;;;;;;6.75;2.72;;;5.60;99.90;;;;;;5004749;28;20054;-78
2023/11/26 09:03:01;;;;;;;8.30;2.90;;;5.60;99.90;;;;;;5003171;28;20050;-78
2023/11/26 09:05:28;;;;;;;6.05;2.33;;;5.60;99.90;;;;;;5004739;28;20548;-79
2023/11/26 09:07:54;;;;;;;4.03;2.40;;;5.60;99.90;;;;;;5004782;28;20049;-78
2023/11/26 09:10:21;;;;;;;4.85;2.50;;;5.60;99.90;;;;;;5002349;28;20096;-78
2023/11/26 09:12:48;;;;;;;4.25;2.20;;;5.70;99.90;;;;;;5006465;28;20050;-79
2023/11/26 09:15:15;;;;;;;7.50;2.95;;;5.60;99.90;;;;;;4998983;28;20102;-78
2023/11/26 09:17:41;;;;;;;4.97;2.42;;;5.70;99.90;;;;;;5005258;28;20057;-79
2023/11/26 09:20:11;;;;;;;3.45;2.30;;;5.70;99.90;;;;;;5001724;28;20042;-78
2023/11/26 09:22:42;;;;;;;5.10;2.53;;;5.80;99.90;;;;;;5007006;28;20042;-79
2023/11/26 09:25:13;;;;;;;5.60;2.95;;;5.90;99.90;;;;;;5007246;28;20116;-79
2023/11/26 09:27:40;;;;;;;7.18;2.47;;;5.90;99.90;;;;;;5007815;28;20054;-79
2023/11/26 09:30:08;;;;;;;3.95;2.20;;;5.90;99.90;;;;;;5008905;28;20078;-79
2023/11/26 09:32:35;;;;;;;3.20;2.08;;;5.90;99.90;;;;;;5010223;28;20148;-82
2023/11/26 09:35:02;;;;;;;5.30;2.10;;;5.90;99.90;;;;;;5003310;28;20467;-83
2023/11/26 09:37:32;;;;;;;2.97;2.20;;;5.90;99.90;;;;;;5015824;28;20042;-77
2023/11/26 09:39:59;;;;;;;3.38;2.00;;;6.00;99.90;;;;;;5009352;28;20054;-81
2023/11/26 09:42:26;;;;;;;4.95;2.33;;;6.00;99.90;;;;;;5022254;28;20097;-81
2023/11/26 09:44:53;;;;;;;4.57;2.10;;;6.00;99.90;;;;;;5012518;28;20046;-81
2023/11/26 09:47:20;;;;;;;5.57;2.60;;;6.00;99.90;;;;;;5010378;28;20576;-81
2023/11/26 09:49:49;;;;;;;3.70;1.65;;;6.00;99.90;;;;;;5015927;28;20049;-81
2023/11/26 09:52:20;;;;;;;4.13;1.70;;;6.00;99.90;;;;;;5010381;28;20126;-80
2023/11/26 09:54:50;;;;;;;4.47;2.25;;;6.00;99.90;;;;;;5014808;28;20084;-81
2023/11/26 09:57:17;;;;;;;4.82;2.08;;;6.10;99.90;;;;;;5010152;28;20084;-81
2023/11/26 09:59:46;;;;;;;2.38;1.67;;;6.00;99.90;;;;;;5031359;28;20105;-81
2023/11/26 10:02:13;;;;;;;7.63;1.90;;;6.00;99.90;;;;;;5012896;28;20553;-81
2023/11/26 10:04:51;;;;;;;4.47;1.70;;;6.10;99.90;;;;;;5018680;28;20441;-81
2023/11/26 10:07:31;;;;;;;4.25;1.80;;;6.10;99.90;;;;;;5019234;28;20042;-81
2023/11/26 10:10:09;;;;;;;5.05;2.13;;;6.20;99.90;;;;;;5029369;28;20048;-82
2023/11/26 10:12:58;;;;;;;7.15;1.95;;;6.20;99.90;;;;;;5030964;28;20302;-80
2023/11/26 10:15:26;;;;;;;1.80;1.48;;;6.20;99.90;;;;;;5017096;28;20421;-81
2023/11/26 10:18:07;;;;;;;3.10;1.80;;;6.10;99.90;;;;;;5033690;28;20056;-81
2023/11/26 10:20:38;;;;;;;4.20;2.10;;;6.10;99.90;;;;;;5015297;28;20081;-81
2023/11/26 10:23:10;;;;;;;6.97;1.85;;;6.20;99.90;;;;;;5013630;28;20052;-80
2023/11/26 10:25:44;;;;;;;4.47;2.72;;;6.30;99.90;;;;;;5016678;28;20502;-82
2023/11/26 10:28:16;;;;;;;4.72;1.90;;;6.20;99.90;;;;;;5014908;28;20042;-82
2023/11/26 10:30:43;;;;;;;4.40;1.45;;;6.20;99.90;;;;;;5017073;28;20050;-82
2023/11/26 10:33:12;;;;;;;2.50;1.60;;;6.20;99.90;;;;;;5016161;28;20433;-82
2023/11/26 10:35:49;;;;;;;4.80;1.80;;;6.20;99.90;;;;;;5016069;28;20102;-82
2023/11/26 10:38:18;;;;;;;2.72;1.77;;;6.30;99.90;;;;;;5015589;28;20053;-83
2023/11/26 10:40:45;;;;;;;8.60;2.05;;;6.20;99.90;;;;;;5019015;28;20046;-81
2023/11/26 10:43:12;;;;;;;5.20;2.15;;;6.30;99.90;;;;;;5018129;28;20050;-82
2023/11/26 10:45:42;;;;;;;3.67;1.90;;;6.30;99.90;;;;;;5017453;28;20050;-81
2023/11/26 10:48:12;;;;;;;4.05;2.85;;;6.30;99.90;;;;;;5016755;28;20073;-81
2023/11/26 10:51:06;;;;;;;4.85;2.15;;;6.30;99.90;;;;;;5014797;28;20117;-82
2023/11/26 10:54:03;;;;;;;4.10;2.00;;;6.30;99.90;;;;;;5011924;28;20057;-82
2023/11/26 10:56:41;;;;;;;7.20;3.28;;;6.30;99.90;;;;;;5014655;28;20058;-82
2023/11/26 10:59:09;;;;;;;3.17;1.80;;;6.30;99.90;;;;;;5013767;28;20065;-81
2023/11/26 11:01:37;;;;;;;6.30;2.47;;;6.30;99.90;;;;;;5028937;28;20058;-81
2023/11/26 11:04:12;;;;;;;5.97;2.25;;;6.30;99.90;;;;;;5027876;28;20037;-80
2023/11/26 11:06:39;;;;;;;3.63;1.83;;;6.30;99.90;;;;;;5014911;28;20053;-80
2023/11/26 11:09:10;;;;;;;3.40;1.38;;;6.30;99.90;;;;;;5019220;28;20042;-80
2023/11/26 11:11:51;;;;;;;2.75;1.42;;;6.30;99.90;;;;;;5014931;28;20070;-80
2023/11/26 11:14:18;;;;;;;2.13;1.40;;;6.40;99.90;;;;;;5010440;28;20047;-80
2023/11/26 11:16:45;;;;;;;4.93;2.55;;;6.40;99.90;;;;;;5011823;28;20074;-79
2023/11/26 11:19:31;;;;;;;3.35;2.33;;;6.50;99.90;;;;;;5010325;28;20137;-81
2023/11/26 11:21:58;;;;;;;4.80;2.10;;;6.50;99.90;;;;;;5012993;28;20046;-79
2023/11/26 11:24:25;;;;;;;2.90;1.45;;;6.60;99.90;;;;;;5009797;28;20208;-80
2023/11/26 11:26:52;;;;;;;3.40;1.40;;;6.50;99.90;;;;;;5027786;28;20045;-80
2023/11/26 11:29:32;;;;;;;2.92;1.80;;;6.60;99.90;;;;;;5008893;28;20046;-80
2023/11/26 11:32:00;;;;;;;5.28;2.20;;;6.60;99.90;;;;;;5012016;28;20045;-80
2023/11/26 11:34:28;;;;;;;3.97;1.75;;;6.60;99.90;;;;;;5013196;28;20057;-79
2023/11/26 11:36:57;;;;;;;3.17;1.80;;;6.60;99.90;;;;;;5017748;28;20045;-80
2023/11/26 11:39:44;;;;;;;5.82;3.00;;;6.60;99.90;;;;;;5012971;28;20045;-81
2023/11/26 11:42:13;;;;;;;5.88;2.25;;;6.60;99.90;;;;;;5011931;28;20042;-80
2023/11/26 11:44:44;;;;;;;4.25;2.05;;;6.60;99.90;;;;;;5012620;28;20426;-80
2023/11/26 11:47:32;;;;;;;4.18;2.17;;;6.60;99.90;;;;;;5012567;28;20510;-81
2023/11/26 11:50:05;;;;;;;4.35;1.40;;;6.60;99.90;;;;;;5013767;28;20038;-81
2023/11/26 11:52:33;;;;;;;5.15;1.92;;;6.70;99.90;;;;;;5014009;28;20046;-80
2023/11/26 11:55:32;;;;;;;4.07;1.90;;;6.70;99.90;;;;;;5030369;28;20045;-81
2023/11/26 11:58:09;;;;;;;4.40;1.80;;;6.80;99.90;;;;;;5014270;28;20060;-81
2023/11/26 12:00:36;;;;;;;3.63;1.75;;;6.90;99.90;;;;;;5010680;28;20047;-81
2023/11/26 12:03:04;;;;;;;3.55;1.40;;;6.90;99.90;;;;;;5030259;28;20046;-81
2023/11/26 12:05:31;;;;;;;7.28;1.80;;;6.90;99.90;;;;;;5011025;28;20065;-81
2023/11/26 12:07:58;;;;;;;4.47;1.75;;;7.00;99.90;;;;;;5015248;28;20041;-81
2023/11/26 12:10:32;;;;;;;4.47;2.40;;;7.00;99.90;;;;;;5010642;28;20042;-82
2023/11/26 12:13:04;;;;;;;3.63;2.20;;;7.00;99.90;;;;;;5030269;28;20118;-81
2023/11/26 12:15:31;;;;;;;6.25;1.70;;;7.00;99.90;;;;;;5012663;28;20464;-82
2023/11/26 12:18:00;;;;;;;2.83;1.85;;;7.10;99.90;;;;;;5015491;28;20053;-82
2023/11/26 12:20:28;;;;;;;4.43;2.30;;;7.10;99.90;;;;;;5012576;28;20054;-81
2023/11/26 12:22:55;;;;;;;7.85;2.63;;;7.10;99.90;;;;;;5016308;28;20556;-82
2023/11/26 12:25:22;;;;;;;6.68;1.90;;;7.10;99.90;;;;;;5012494;28;20052;-81
2023/11/26 12:28:01;;;;;;;3.53;1.63;;;7.00;99.90;;;;;;5028196;28;20053;-81
2023/11/26 12:30:28;;;;;;;2.78;1.83;;;7.10;99.90;;;;;;5012189;28;20066;-82
2023/11/26 12:32:55;;;;;;;4.35;2.00;;;7.10;99.90;;;;;;5030374;28;20053;-82
2023/11/26 12:35:25;;;;;;;4.80;1.90;;;7.10;99.90;;;;;;5016612;28;20050;-82
2023/11/26 12:37:52;;;;;;;4.78;2.10;;;7.20;99.90;;;;;;5012313;28;20046;-83
2023/11/26 12:40:20;;;;;;;3.72;1.98;;;7.20;99.90;;;;;;5017717;28;20046;-82
2023/11/26 12:42:48;;;;;;;3.50;1.70;;;7.20;99.90;;;;;;5021317;28;20104;-81
2023/11/26 12:45:17;;;;;;;2.22;1.63;;;7.20;99.90;;;;;;5021466;28;20069;-82
2023/11/26 12:47:53;;;;;;;4.10;1.90;;;7.20;99.90;;;;;;5013300;28;20053;-83
2023/11/26 12:50:24;;;;;;;3.25;1.65;;;7.10;99.90;;;;;;5010418;28;20494;-82
2023/11/26 12:52:51;;;;;;;4.68;1.83;;;7.00;99.90;;;;;;5008042;28;20042;-81
2023/11/26 12:55:18;;;;;;;1.98;1.48;;;6.90;99.90;;;;;;5008959;28;20046;-81
2023/11/26 12:57:45;;;;;;;3.22;1.80;;;6.80;99.90;;;;;;5007600;28;20050;-81
2023/11/26 13:00:14;;;;;;;3.08;1.88;;;6.80;99.90;;;;;;5008026;28;20050;-81
2023/11/26 13:02:42;;;;;;;3.38;1.88;;;6.80;99.90;;;;;;5003695;28;20058;-82
2023/11/26 13:05:26;;;;;;;4.22;2.08;;;6.70;99.90;;;;;;5006499;28;20117;-81
2023/11/26 13:07:57;;;;;;;4.45;2.00;;;6.60;99.90;;;;;;5008088;28;20558;-81